Date,TemperatureHighF,TemperatureAvgF,TemperatureLowF,DewpointHighF,DewpointAvgF,DewpointLowF,HumidityHigh,HumidityAvg,HumidityLow,PressureMaxIn,PressureMinIn,WindSpeedMaxMPH,WindSpeedAvgMPH,GustSpeedMaxMPH,PrecipitationSumIn
2013-3-1,85,65,52,49,34,21,65,35,11,29.97,29.83,20,2,20,0.00
2013-3-2,74,66,54,54,44,25,88,50,19,29.88,29.75,9,2,9,0.00
2013-3-3,68,58,52,55,51,46,88,79,56,29.79,29.65,9,2,9,0.00
2013-3-4,62,54,49,53,49,45,91,83,68,29.77,29.67,8,2,8,0.00
2013-3-5,60,53,48,52,48,44,91,83,71,29.80,29.70,9,1,9,0.00
2013-3-6,58,52,47,49,46,42,87,80,65,29.81,29.67,8,2,8,0.00
2013-3-7,61,54,49,51,47,45,91,79,60,29.68,29.50,10,2,10,0.61
2013-3-8,58,52,44,50,45,42,93,79,64,29.68,29.45,10,2,10,0.37
2013-3-9,66,54,43,51,43,35,83,66,39,29.87,29.68,11,2,11,0.00
2013-3-10,68,56,45,52,43,35,84,63,37,29.95,29.83,8,2,8,0.00
2013-3-11,66,54,43,53,45,37,84,73,51,29.85,29.71,7,1,7,0.00
2013-3-12,64,55,45,54,48,41,89,79,65,29.76,29.69,6,1,6,0.00
2013-3-13,65,54,46,56,50,44,94,86,70,29.78,29.70,7,1,7,0.00
2013-3-14,58,53,47,54,50,45,96,91,83,29.77,29.68,7,1,7,0.00
2013-3-15,60,54,51,56,52,48,96,91,82,29.70,29.60,6,1,6,0.00
2013-3-16,59,54,50,54,51,47,96,91,81,29.65,29.55,7,1,7,0.00
2013-3-17,64,55,49,56,51,46,96,87,72,29.68,29.59,7,2,7,0.01
2013-3-18,61,55,48,53,50,46,92,85,72,29.74,29.64,9,1,9,0.00
2013-3-19,62,56,49,55,52,46,92,86,76,29.78,29.68,8,2,8,0.00
2013-3-20,64,58,52,56,53,49,92,83,71,29.77,29.61,7,1,7,0.00
2013-3-21,69,59,50,57,52,47,90,79,64,29.62,29.46,9,2,9,0.00
2013-3-22,74,58,46,55,47,39,87,68,37,29.56,29.44,9,2,9,0.00
2013-3-23,65,56,46,55,47,30,87,71,48,29.69,29.55,9,2,9,0.00
2013-3-24,66,57,48,56,50,44,93,79,64,29.69,29.55,9,1,9,0.00
2013-3-25,65,56,47,56,50,43,90,82,69,29.65,29.56,8,2,8,0.00
2013-3-26,64,56,47,54,50,45,92,83,65,29.65,29.57,9,2,9,0.00
2013-3-27,67,57,50,55,52,48,92,82,65,29.71,29.59,9,2,9,0.00
2013-3-28,63,56,49,56,52,48,94,87,75,29.75,29.68,8,1,9,0.00
2013-3-29,65,57,50,58,53,47,95,87,74,29.78,29.70,10,2,10,0.00
2013-3-30,67,57,54,58,53,52,95,86,69,29.81,29.72,8,2,8,0.00
2013-3-31,64,58,54,60,55,51,95,88,76,29.79,29.71,9,2,9,0.12